createdAt,value
2022-11-24T00:00:34.203Z,9.25
2022-11-24T00:05:38.488Z,7.68
2022-11-24T00:10:40.045Z,9.25
2022-11-24T00:15:41.575Z,9.30
2022-11-24T00:20:43.129Z,8.11
2022-11-24T00:25:44.668Z,8.90
2022-11-24T00:30:46.380Z,7.66
2022-11-24T00:35:57.520Z,9.34
2022-11-24T00:40:59.075Z,8.42
2022-11-24T00:46:00.942Z,9.05
2022-11-24T00:51:05.804Z,7.32
2022-11-24T00:56:08.778Z,8.57
2022-11-24T01:01:17.631Z,9.11
2022-11-24T01:06:21.356Z,9.06
2022-11-24T01:11:25.792Z,9.81
2022-11-24T01:16:34.346Z,9.18
2022-11-24T01:21:36.011Z,10.12
2022-11-24T01:26:37.888Z,9.03
2022-11-24T01:31:39.581Z,9.83
2022-11-24T01:36:41.260Z,9.29
2022-11-24T01:41:42.885Z,9.87
2022-11-24T01:46:47.992Z,9.54
2022-11-24T01:51:58.874Z,9.41
2022-11-24T01:57:11.272Z,9.32
2022-11-24T02:02:14.168Z,9.76
2022-11-24T02:07:15.976Z,9.40
2022-11-24T02:12:17.672Z,9.78
2022-11-24T02:17:19.233Z,10.27
2022-11-24T02:22:37.159Z,9.34
2022-11-24T02:27:38.732Z,9.81
2022-11-24T02:32:42.131Z,9.48
2022-11-24T02:37:43.770Z,8.88
2022-11-24T02:42:47.107Z,9.59
2022-11-24T02:47:48.768Z,9.16
2022-11-24T02:52:50.405Z,10.42
2022-11-24T02:57:51.957Z,10.54
2022-11-24T03:02:53.581Z,9.30
2022-11-24T03:07:55.317Z,9.15
2022-11-24T03:12:56.898Z,9.48
2022-11-24T03:17:58.529Z,8.08
2022-11-24T03:23:00.086Z,9.13
2022-11-24T03:28:01.771Z,8.69
2022-11-24T03:33:05.059Z,8.04
2022-11-24T03:38:06.648Z,9.29
2022-11-24T03:43:08.265Z,8.50
2022-11-24T03:48:09.927Z,8.91
2022-11-24T03:53:11.499Z,9.43
2022-11-24T03:58:13.055Z,9.86
2022-11-24T04:03:14.752Z,9.14
2022-11-24T04:08:16.854Z,9.55
2022-11-24T04:13:21.292Z,8.60
2022-11-24T04:18:22.887Z,8.52
2022-11-24T04:23:24.656Z,9.19
2022-11-24T04:28:27.311Z,9.77
2022-11-24T04:33:28.910Z,9.53
2022-11-24T04:39:23.203Z,8.55
2022-11-24T04:43:52.073Z,7.96
2022-11-24T04:48:53.630Z,9.50
2022-11-24T04:53:55.203Z,7.94
2022-11-24T04:58:56.915Z,8.92
2022-11-24T05:05:11.638Z,7.41
2022-11-24T05:10:31.778Z,7.63
2022-11-24T05:15:33.715Z,7.13
2022-11-24T05:20:36.582Z,7.71
2022-11-24T05:25:40.543Z,7.78
2022-11-24T05:30:45.786Z,7.52
2022-11-24T05:35:49.101Z,8.14
2022-11-24T05:40:50.738Z,9.20
2022-11-24T05:45:52.322Z,9.42
2022-11-24T05:50:58.912Z,9.42
2022-11-24T05:56:03.835Z,8.97
2022-11-24T06:01:07.034Z,8.39
2022-11-24T06:06:08.682Z,8.71
2022-11-24T06:11:19.537Z,8.89
2022-11-24T06:16:21.274Z,8.15
2022-11-24T06:21:22.887Z,7.40
2022-11-24T06:26:24.574Z,7.50
2022-11-24T06:31:26.296Z,7.61
2022-11-24T06:36:28.116Z,8.25
2022-11-24T06:41:29.930Z,6.37
2022-11-24T06:46:31.751Z,7.62
2022-11-24T06:51:33.408Z,8.82
2022-11-24T06:56:35.387Z,8.76
2022-11-24T07:01:37.024Z,7.72
2022-11-24T07:06:41.299Z,7.75
2022-11-24T07:11:43.122Z,8.02
2022-11-24T07:16:44.718Z,7.53
2022-11-24T07:21:46.310Z,9.08
2022-11-24T07:26:47.948Z,8.14
2022-11-24T07:31:50.092Z,9.10
2022-11-24T07:36:51.866Z,8.18
2022-11-24T07:41:53.475Z,6.83
2022-11-24T07:46:55.198Z,8.34
2022-11-24T07:51:56.832Z,9.15
2022-11-24T07:56:58.470Z,9.09
2022-11-24T08:02:00.109Z,7.76
2022-11-24T08:07:02.674Z,8.89
2022-11-24T08:12:04.436Z,8.96
2022-11-24T08:17:06.072Z,7.81
2022-11-24T08:22:07.680Z,8.62
2022-11-24T08:27:09.235Z,7.99
2022-11-24T08:32:14.139Z,8.42
2022-11-24T08:37:19.166Z,7.78
2022-11-24T08:42:20.806Z,9.02
2022-11-24T08:47:22.859Z,9.58
2022-11-24T08:52:24.459Z,10.05
2022-11-24T08:57:26.160Z,9.51
2022-11-24T09:02:27.734Z,9.96
2022-11-24T09:07:29.428Z,10.08
2022-11-24T09:12:31.093Z,10.61
2022-11-24T09:17:32.922Z,9.71
2022-11-24T09:22:35.618Z,9.73
2022-11-24T09:27:37.328Z,10.87
2022-11-24T09:32:38.878Z,9.02
2022-11-24T09:37:40.444Z,8.37
2022-11-24T09:43:03.742Z,9.27
2022-11-24T09:48:22.717Z,9.24
2022-11-24T09:53:27.007Z,8.61
2022-11-24T09:58:35.864Z,10.23
2022-11-24T10:03:43.404Z,10.28
2022-11-24T10:09:03.299Z,10.57
2022-11-24T10:14:23.215Z,9.76
2022-11-24T10:19:50.882Z,9.59
2022-11-24T10:25:01.362Z,9.87
2022-11-24T10:30:12.091Z,10.50
2022-11-24T10:35:22.499Z,11.93
2022-11-24T10:40:56.556Z,11.06
2022-11-24T10:46:27.310Z,11.96
2022-11-24T10:51:35.024Z,10.53
2022-11-24T10:56:41.396Z,12.33
2022-11-24T11:06:14.702Z,8.87
2022-11-24T11:11:28.439Z,9.40
2022-11-24T11:16:41.267Z,8.34
2022-11-24T11:21:43.001Z,9.52
2022-11-24T11:26:44.948Z,9.93
2022-11-24T11:37:30.999Z,10.06
2022-11-24T11:43:01.457Z,10.38
2022-11-24T11:48:03.478Z,10.62
2022-11-24T11:53:17.252Z,10.24
2022-11-24T11:59:02.219Z,10.19
2022-11-24T12:04:33.662Z,10.63
2022-11-24T12:09:41.650Z,9.92
2022-11-24T12:15:05.880Z,10.70
2022-11-24T12:20:36.010Z,10.69
2022-11-24T12:25:55.786Z,10.75
2022-11-24T12:30:57.580Z,11.94
2022-11-24T12:36:28.132Z,11.41
2022-11-24T12:41:48.019Z,10.98
2022-11-24T12:46:58.470Z,11.17
2022-11-24T12:52:05.453Z,11.83
2022-11-24T12:57:25.283Z,11.93
2022-11-24T13:03:14.985Z,11.53
2022-11-24T13:08:16.709Z,12.37
2022-11-24T13:13:18.454Z,12.48
2022-11-24T13:18:42.175Z,12.54
2022-11-24T13:23:55.255Z,12.31
2022-11-24T13:29:05.825Z,11.80
2022-11-24T13:34:55.067Z,12.32
2022-11-24T13:40:01.111Z,10.89
2022-11-24T13:45:05.882Z,11.17
2022-11-24T13:50:23.841Z,11.76
2022-11-24T13:55:32.694Z,11.96
2022-11-24T14:00:58.125Z,11.50
2022-11-24T14:06:02.275Z,11.84
2022-11-24T14:11:13.354Z,12.09
2022-11-24T14:16:18.248Z,11.47
2022-11-24T14:21:30.316Z,12.76
2022-11-24T14:26:35.587Z,11.74
2022-11-24T14:31:37.281Z,12.30
2022-11-24T14:36:39.849Z,11.31
2022-11-24T14:41:44.009Z,12.16
2022-11-24T14:46:46.061Z,11.44
2022-11-24T14:51:55.497Z,11.11
2022-11-24T14:57:05.456Z,11.81
2022-11-24T15:02:44.744Z,11.67
2022-11-24T15:07:48.203Z,12.31
2022-11-24T15:12:54.623Z,12.42
2022-11-24T15:18:01.110Z,12.79
2022-11-24T15:23:25.706Z,12.52
2022-11-24T15:28:27.486Z,11.59
2022-11-24T15:33:29.769Z,10.09
2022-11-24T15:38:31.590Z,10.79
2022-11-24T15:43:41.050Z,10.03
2022-11-24T15:48:42.758Z,10.31
2022-11-24T15:53:51.163Z,11.50
2022-11-24T15:58:54.344Z,9.76
2022-11-24T16:03:56.021Z,9.55
2022-11-24T16:08:58.383Z,11.62
2022-11-24T16:14:00.080Z,11.29
2022-11-24T16:19:01.831Z,9.46
2022-11-24T16:24:03.631Z,11.55
2022-11-24T16:29:05.306Z,12.89
2022-11-24T16:34:08.024Z,12.99
2022-11-24T16:39:09.637Z,11.37
2022-11-24T16:44:11.288Z,12.74
2022-11-24T16:49:12.983Z,10.52
2022-11-24T16:54:14.561Z,12.22
2022-11-24T16:59:16.208Z,10.91
2022-11-24T17:04:17.996Z,10.69
2022-11-24T17:09:19.675Z,10.20
2022-11-24T17:14:21.360Z,10.43
2022-11-24T17:19:23.098Z,11.28
2022-11-24T17:24:24.804Z,12.10
2022-11-24T17:29:26.512Z,11.61
2022-11-24T17:34:28.305Z,11.67
2022-11-24T17:39:30.003Z,10.94
2022-11-24T17:44:32.011Z,12.02
2022-11-24T17:49:34.060Z,11.32
2022-11-24T17:54:51.002Z,11.32
2022-11-24T17:59:53.236Z,10.57
2022-11-24T18:04:55.987Z,11.56
2022-11-24T18:09:57.792Z,10.46
2022-11-24T18:14:59.884Z,12.40
2022-11-24T18:20:01.575Z,11.81
2022-11-24T18:25:03.415Z,10.05
2022-11-24T18:30:06.114Z,9.69
2022-11-24T18:35:08.230Z,9.59
2022-11-24T18:40:10.251Z,9.23
2022-11-24T18:45:11.929Z,11.58
2022-11-24T18:50:13.622Z,10.08
2022-11-24T18:55:15.629Z,9.81
2022-11-24T19:00:17.968Z,10.97
2022-11-24T19:05:20.303Z,11.92
2022-11-24T19:10:22.004Z,11.15
2022-11-24T19:15:23.742Z,10.98
2022-11-24T19:20:25.362Z,11.33
2022-11-24T19:25:27.127Z,9.78
2022-11-24T19:30:29.317Z,9.29
2022-11-24T19:35:30.907Z,9.92
2022-11-24T19:40:32.466Z,8.85
2022-11-24T19:45:34.075Z,8.50
2022-11-24T19:50:35.699Z,10.45
2022-11-24T19:55:37.412Z,8.23
2022-11-24T20:00:39.054Z,7.92
2022-11-24T20:05:40.615Z,8.84
2022-11-24T20:10:42.516Z,9.53
2022-11-24T20:15:44.238Z,8.81
2022-11-24T20:20:45.854Z,9.40
2022-11-24T20:25:47.415Z,8.48
2022-11-24T20:30:50.206Z,8.84
2022-11-24T20:35:51.798Z,9.52
2022-11-24T20:40:53.358Z,9.88
2022-11-24T20:46:02.655Z,8.70
2022-11-24T20:51:07.339Z,8.44
2022-11-24T20:56:15.292Z,9.23
2022-11-24T21:01:25.819Z,9.10
2022-11-24T21:06:28.367Z,8.54
2022-11-24T21:11:30.655Z,8.54
2022-11-24T21:16:40.721Z,8.06
2022-11-24T21:21:42.821Z,8.28
2022-11-24T21:26:51.224Z,9.05
2022-11-24T21:31:53.050Z,9.01
2022-11-24T21:36:54.702Z,8.84
2022-11-24T21:41:56.408Z,8.96
2022-11-24T21:46:58.066Z,9.70
2022-11-24T21:51:59.716Z,7.12
2022-11-24T21:57:01.328Z,8.75
2022-11-24T22:02:02.958Z,9.97
2022-11-24T22:07:04.506Z,7.22
2022-11-24T22:12:06.321Z,8.44
2022-11-24T22:17:08.505Z,9.49
2022-11-24T22:22:10.185Z,9.77
2022-11-24T22:27:11.874Z,8.24
2022-11-24T22:32:13.506Z,8.42
2022-11-24T22:37:15.121Z,9.73
2022-11-24T22:42:16.771Z,8.80
2022-11-24T22:47:18.498Z,7.53
2022-11-24T22:52:20.149Z,8.79
2022-11-24T22:57:21.811Z,8.54
2022-11-24T23:02:23.394Z,9.74
2022-11-24T23:07:25.055Z,9.67
2022-11-24T23:12:26.760Z,9.39
2022-11-24T23:17:28.379Z,9.18
2022-11-24T23:22:30.022Z,9.19
2022-11-24T23:27:31.683Z,7.86
2022-11-24T23:32:33.288Z,8.40
2022-11-24T23:37:59.944Z,7.49
2022-11-24T23:42:57.341Z,7.70
2022-11-24T23:47:59.103Z,8.51
2022-11-24T23:53:00.775Z,8.27
2022-11-24T23:58:02.442Z,8.85
